Time;durP1;ratioP1;P1;durP2;ratioP2;P2;SDS_P1;SDS_P2;PMS_P1;PMS_P2;Temp;Humidity;BMP_temperature;BMP_pressure;BME280_temperature;BME280_humidity;BME280_pressure;Samples;Min_cycle;Max_cycle;Signal;HPM_P1;HPM_P2
2023/09/09 00:04:27;;;;;;;1.85;1.65;;;;;;;16.13;100.00;100243.31;5224811;23;21337;-92
2023/09/09 00:06:53;;;;;;;0.43;0.30;;;;;;;15.84;100.00;100202.66;5013987;28;20054;-92
2023/09/09 00:09:19;;;;;;;1.77;0.63;;;;;;;15.76;100.00;100189.44;4984810;28;20038;-93
2023/09/09 00:11:44;;;;;;;0.20;0.20;;;;;;;15.73;100.00;100199.53;4971122;28;20042;-92
2023/09/09 00:14:11;;;;;;;0.55;0.47;;;;;;;16.03;100.00;100236.94;4966667;28;20052;-93
2023/09/09 00:16:37;;;;;;;0.52;0.47;;;;;;;15.76;100.00;100197.84;4979981;28;20045;-93
2023/09/09 00:19:03;;;;;;;1.05;0.88;;;;;;;15.81;100.00;100211.94;4969901;28;20033;-92
2023/09/09 00:21:29;;;;;;;1.27;1.10;;;;;;;15.67;100.00;100204.22;4995246;28;20874;-96
2023/09/09 01:02:27;;;;;;;0.35;0.35;;;;;;;15.16;100.00;100169.75;5437134;23;20129;-96
2023/09/09 01:04:53;;;;;;;2.15;1.00;;;;;;;15.21;100.00;100185.88;5032420;28;20037;-96
2023/09/09 01:07:19;;;;;;;0.77;0.77;;;;;;;15.22;100.00;100190.22;5025507;28;20567;-96
2023/09/09 01:09:45;;;;;;;0.60;0.60;;;;;;;15.31;100.00;100210.56;5030461;28;20068;-96
2023/09/09 01:12:11;;;;;;;1.25;0.98;;;;;;;15.17;100.00;100188.03;5016930;28;20132;-96
2023/09/09 01:14:43;;;;;;;1.50;1.33;;;;;;;15.16;100.00;100197.69;5018407;28;20029;-96
2023/09/09 01:17:21;;;;;;;1.00;0.85;;;;;;;14.96;100.00;100183.38;5046156;28;20049;-96
2023/09/09 01:19:58;;;;;;;0.82;0.70;;;;;;;15.05;100.00;100211.31;5030727;28;20049;-96
2023/09/09 01:22:48;;;;;;;0.30;0.30;;;;;;;15.07;100.00;100204.03;5042108;28;20064;-96
2023/09/09 01:25:23;;;;;;;0.38;0.30;;;;;;;14.98;100.00;100183.69;5010769;28;20045;-96
2023/09/09 01:27:59;;;;;;;0.60;0.60;;;;;;;14.99;100.00;100188.03;5012682;28;20037;-96
2023/09/09 01:30:27;;;;;;;;;;;;;;;15.37;100.00;100235.88;5004473;28;20034;-96
2023/09/09 01:32:55;;;;;;;1.70;1.05;;;;;;;15.01;100.00;100174.38;4995226;28;19924;-96
2023/09/09 01:35:31;;;;;;;1.85;0.93;;;;;;;15.02;100.00;100181.50;5026832;28;20067;-96
2023/09/09 01:38:06;;;;;;;0.60;0.60;;;;;;;15.04;100.00;100184.63;5044661;28;20036;-96
2023/09/09 01:40:38;;;;;;;0.98;0.90;;;;;;;15.05;100.00;100198.13;5011660;28;20038;-96
2023/09/09 01:43:09;;;;;;;0.75;0.75;;;;;;;15.18;100.00;100217.53;5014493;28;20044;-96
2023/09/09 01:45:38;;;;;;;0.28;0.25;;;;;;;15.03;100.00;100208.22;5007522;28;20529;-96
2023/09/09 01:48:05;;;;;;;0.52;0.52;;;;;;;14.82;100.00;100185.53;5008316;28;20034;-96
2023/09/09 01:50:34;;;;;;;1.13;0.50;;;;;;;14.79;100.00;100189.25;5003899;28;20136;-96
2023/09/09 01:53:06;;;;;;;0.65;0.50;;;;;;;15.04;100.00;100232.13;5015305;28;20378;-96
2023/09/09 01:55:35;;;;;;;0.75;0.75;;;;;;;14.67;100.00;100190.16;5014537;28;20069;-96
2023/09/09 01:58:04;;;;;;;0.10;0.10;;;;;;;14.93;100.00;100229.75;5015450;28;20029;-96
2023/09/09 02:00:31;;;;;;;1.15;1.05;;;;;;;14.56;100.00;100173.03;5002540;28;20041;-95
2023/09/09 02:03:06;;;;;;;1.55;0.98;;;;;;;14.55;100.00;100176.31;5004408;28;20033;-96
2023/09/09 02:05:35;;;;;;;0.80;0.80;;;;;;;14.53;100.00;100168.38;4986667;28;20484;-96
2023/09/09 02:08:06;;;;;;;3.45;0.98;;;;;;;14.89;100.00;100234.72;5009080;28;20053;-96
2023/09/09 02:10:32;;;;;;;1.00;0.70;;;;;;;14.72;100.00;100197.13;4991783;28;20049;-96
2023/09/09 02:13:04;;;;;;;0.50;0.50;;;;;;;14.50;100.00;100185.28;4989909;28;20050;-96
2023/09/09 02:15:32;;;;;;;1.73;1.08;;;;;;;14.61;100.00;100194.78;4993660;28;20041;-96
2023/09/09 02:18:02;;;;;;;0.80;0.80;;;;;;;14.48;100.00;100185.72;4993624;28;20114;-96
2023/09/09 02:20:42;;;;;;;0.75;0.75;;;;;;;14.50;100.00;100185.28;4991566;28;20169;-96
2023/09/09 02:23:12;;;;;;;0.85;0.70;;;;;;;14.86;100.00;100241.22;5004364;28;20052;-96
2023/09/09 02:25:41;;;;;;;0.63;0.63;;;;;;;14.87;100.00;100237.97;5005001;28;20044;-96
2023/09/09 02:28:07;;;;;;;0.57;0.57;;;;;;;14.74;100.00;100217.78;5007296;28;20041;-96
2023/09/09 02:30:35;;;;;;;2.35;0.95;;;;;;;14.48;100.00;100191.31;5007548;28;20048;-96
2023/09/09 02:33:01;;;;;;;0.80;0.80;;;;;;;14.39;100.00;100182.91;4968285;28;20077;-92
2023/09/09 02:35:26;;;;;;;1.13;0.70;;;;;;;14.46;100.00;100191.78;4995193;28;20072;-92
2023/09/09 02:37:52;;;;;;;0.93;0.88;;;;;;;14.45;100.00;100189.44;5005872;28;20052;-92
2023/09/09 02:40:18;;;;;;;0.85;0.85;;;;;;;14.39;100.00;100180.13;5025270;28;20065;-92
2023/09/09 02:42:43;;;;;;;0.88;0.73;;;;;;;14.41;100.00;100205.56;5008357;28;20691;-92
2023/09/09 02:45:09;;;;;;;0.75;0.60;;;;;;;14.33;100.00;100198.66;5028554;28;20056;-93
2023/09/09 02:47:35;;;;;;;1.52;1.20;;;;;;;14.18;100.00;100192.09;5009371;28;20045;-93
2023/09/09 02:50:02;;;;;;;1.65;0.88;;;;;;;14.54;100.00;100242.50;4998641;28;20495;-92
2023/09/09 02:52:28;;;;;;;0.25;0.25;;;;;;;14.26;100.00;100227.63;5019689;28;20418;-92
2023/09/09 02:54:54;;;;;;;0.80;0.80;;;;;;;14.14;100.00;100208.97;5026614;28;20045;-93
2023/09/09 02:57:19;;;;;;;0.82;0.68;;;;;;;14.20;100.00;100221.06;5012846;28;20526;-92
2023/09/09 02:59:45;;;;;;;0.30;0.30;;;;;;;14.08;100.00;100194.06;5010742;28;20129;-92
2023/09/09 03:02:13;;;;;;;1.08;0.57;;;;;;;13.99;100.00;100183.63;5010491;28;20053;-96
2023/09/09 03:04:38;;;;;;;0.85;0.57;;;;;;;14.24;100.00;100223.72;4998664;28;20519;-96
2023/09/09 03:07:04;;;;;;;0.25;0.25;;;;;;;14.03;100.00;100183.50;4996504;28;20049;-96
2023/09/09 03:09:33;;;;;;;1.05;0.95;;;;;;;14.19;100.00;100213.97;5016026;28;20072;-96
2023/09/09 03:12:01;;;;;;;4.90;2.05;;;;;;;14.20;100.00;100207.13;5006136;28;20034;-96
2023/09/09 03:14:27;;;;;;;0.85;0.75;;;;;;;14.28;100.00;100211.19;5000119;28;20041;-96
2023/09/09 03:16:53;;;;;;;0.08;0.08;;;;;;;14.52;100.00;100233.81;5002407;28;20034;-96
2023/09/09 03:19:18;;;;;;;1.27;1.15;;;;;;;14.17;100.00;100182.16;5004029;28;20064;-96
2023/09/09 03:21:45;;;;;;;0.35;0.35;;;;;;;14.19;100.00;100191.66;4983010;28;20033;-96
2023/09/09 03:24:11;;;;;;;0.88;0.88;;;;;;;14.10;100.00;100168.50;5027486;28;20072;-96
2023/09/09 03:26:38;;;;;;;5.97;1.10;;;;;;;14.33;100.00;100204.25;4999176;28;20045;-96
2023/09/09 03:29:04;;;;;;;1.08;1.08;;;;;;;14.29;100.00;100217.56;5001651;28;20038;-96
2023/09/09 03:31:29;;;;;;;0.80;0.80;;;;;;;14.37;100.00;100233.59;5001814;28;20037;-96
2023/09/09 03:33:55;;;;;;;1.02;0.88;;;;;;;14.01;100.00;100183.19;5016599;28;20046;-96
2023/09/09 03:36:21;;;;;;;0.90;0.40;;;;;;;13.93;100.00;100177.09;5005976;28;20095;-96
2023/09/09 03:38:47;;;;;;;0.05;0.03;;;;;;;13.90;100.00;100183.59;5001303;28;20049;-96
2023/09/09 03:41:13;;;;;;;1.08;0.73;;;;;;;13.90;100.00;100180.81;4997602;28;20038;-96
2023/09/09 03:43:40;;;;;;;0.15;0.15;;;;;;;13.92;100.00;100183.91;5020506;28;20050;-96
2023/09/09 03:46:06;;;;;;;0.60;0.35;;;;;;;13.83;100.00;100172.69;5004649;28;20040;-96
2023/09/09 03:48:32;;;;;;;0.73;0.73;;;;;;;13.86;100.00;100188.53;4988069;28;20479;-96
2023/09/09 03:51:00;;;;;;;0.15;0.15;;;;;;;13.82;100.00;100182.31;5007006;28;20522;-96
2023/09/09 03:53:27;;;;;;;0.57;0.55;;;;;;;13.95;100.00;100202.50;4994985;28;20037;-96
2023/09/09 03:55:53;;;;;;;2.35;1.55;;;;;;;13.84;100.00;100174.25;5025495;28;20573;-96
2023/09/09 03:58:20;;;;;;;0.52;0.52;;;;;;;13.86;100.00;100177.38;5016943;28;20029;-96
2023/09/09 04:00:48;;;;;;;1.17;1.10;;;;;;;13.99;100.00;100203.16;5017065;28;20030;-96
2023/09/09 04:03:15;;;;;;;1.45;1.25;;;;;;;14.00;100.00;100199.13;5004994;28;20049;-96
2023/09/09 04:05:41;;;;;;;0.65;0.65;;;;;;;14.13;100.00;100224.16;4998995;28;20086;-96
2023/09/09 04:08:12;;;;;;;0.82;0.82;;;;;;;13.88;100.00;100191.63;4978966;28;20495;-96
2023/09/09 04:10:38;;;;;;;0.80;0.80;;;;;;;13.87;100.00;100195.63;4997157;28;20037;-91
2023/09/09 04:13:04;;;;;;;1.20;0.63;;;;;;;13.94;100.00;100217.69;4982474;28;20050;-92
2023/09/09 04:15:30;;;;;;;1.65;1.05;;;;;;;13.75;100.00;100188.13;5025153;28;20037;-92
2023/09/09 04:17:56;;;;;;;1.77;1.20;;;;;;;13.75;100.00;100192.94;5009136;28;20083;-92
2023/09/09 04:20:23;;;;;;;0.40;0.40;;;;;;;13.81;100.00;100207.84;5011751;28;20041;-92
2023/09/09 04:22:48;;;;;;;1.40;1.13;;;;;;;13.79;100.00;100205.50;5014378;28;20040;-93
2023/09/09 04:25:14;;;;;;;0.55;0.55;;;;;;;13.84;100.00;100235.59;5010170;28;20034;-91
2023/09/09 04:27:39;;;;;;;1.73;1.13;;;;;;;13.49;100.00;100187.50;5005739;28;20502;-92
2023/09/09 04:30:06;;;;;;;0.40;0.40;;;;;;;13.60;100.00;100198.25;4994641;28;20415;-91
2023/09/09 04:32:34;;;;;;;1.17;1.08;;;;;;;13.83;100.00;100234.03;4978928;28;20045;-92
2023/09/09 04:35:01;;;;;;;0.35;0.32;;;;;;;13.44;100.00;100176.16;4985590;28;20054;-92
2023/09/09 04:37:27;;;;;;;1.00;0.85;;;;;;;13.76;100.00;100209.19;5006900;28;20038;-92
2023/09/09 04:39:54;;;;;;;0.35;0.35;;;;;;;13.53;100.00;100181.78;4997417;28;20030;-96
2023/09/09 04:42:21;;;;;;;1.17;0.95;;;;;;;13.49;100.00;100175.56;4992557;28;20038;-96
2023/09/09 04:44:47;;;;;;;0.70;0.70;;;;;;;13.72;100.00;100210.56;5000350;28;20104;-95
2023/09/09 04:47:15;;;;;;;0.98;0.95;;;;;;;13.52;100.00;100183.03;4981096;28;20034;-96
2023/09/09 04:49:42;;;;;;;1.23;0.88;;;;;;;13.62;100.00;100195.81;5003129;28;20447;-96
2023/09/09 04:52:08;;;;;;;0.60;0.60;;;;;;;13.63;100.00;100179.88;4999094;28;20514;-95
2023/09/09 04:54:34;;;;;;;0.90;0.90;;;;;;;13.71;100.00;100181.16;4980621;28;20038;-96
2023/09/09 04:57:02;;;;;;;0.93;0.93;;;;;;;13.74;100.00;100197.75;5010376;28;20772;-96
2023/09/09 04:59:28;;;;;;;0.55;0.50;;;;;;;13.84;100.00;100196.56;5000997;28;20045;-96
2023/09/09 05:01:54;;;;;;;1.75;1.00;;;;;;;13.77;100.00;100187.69;4999359;28;20036;-96
2023/09/09 05:04:20;;;;;;;0.57;0.35;;;;;;;13.84;100.00;100196.56;4980491;28;20045;-96
2023/09/09 05:06:45;;;;;;;6.50;2.75;;;;;;;13.94;100.00;100198.19;5001278;28;20045;-96
2023/09/09 05:09:11;;;;;;;1.17;1.00;;;;;;;14.11;100.00;100220.28;5009873;28;20038;-96
2023/09/09 05:11:37;;;;;;;1.45;1.02;;;;;;;13.84;100.00;100174.25;4999339;28;20084;-96
2023/09/09 05:14:03;;;;;;;1.67;0.93;;;;;;;14.31;100.00;100240.22;4999935;28;20030;-96
2023/09/09 05:16:29;;;;;;;1.17;1.08;;;;;;;14.35;100.00;100240.88;5023860;28;20049;-96
2023/09/09 05:18:55;;;;;;;0.38;0.38;;;;;;;13.92;100.00;100185.91;4992773;28;20041;-96
2023/09/09 05:21:25;;;;;;;0.82;0.82;;;;;;;13.92;100.00;100197.06;5015369;28;20130;-96
2023/09/09 05:23:54;;;;;;;1.45;1.30;;;;;;;13.88;100.00;100186.03;5011418;28;20046;-96
2023/09/09 05:26:21;;;;;;;0.40;0.35;;;;;;;13.95;100.00;100191.34;4989737;28;20053;-96
2023/09/09 05:28:47;;;;;;;0.43;0.43;;;;;;;14.10;100.00;100190.81;5006915;28;20040;-96
2023/09/09 05:31:17;;;;;;;0.75;0.60;;;;;;;14.15;100.00;100199.38;5024251;28;20098;-96
2023/09/09 05:33:47;;;;;;;0.90;0.85;;;;;;;14.52;100.00;100250.56;5003851;28;20034;-96
2023/09/09 05:36:13;;;;;;;0.57;0.57;;;;;;;14.51;100.00;100249.03;5021275;28;20045;-93
2023/09/09 05:38:39;;;;;;;1.17;1.05;;;;;;;14.56;100.00;100223.28;5004434;28;20046;-91
2023/09/09 05:41:04;;;;;;;1.17;1.00;;;;;;;14.84;100.00;100233.28;5016217;28;20223;-91
2023/09/09 05:43:30;;;;;;;1.35;1.25;;;;;;;15.03;100.00;100227.75;5020377;28;20065;-92
2023/09/09 05:45:58;;;;;;;1.08;0.95;;;;;;;15.24;100.00;100210.09;5010914;28;20034;-92
2023/09/09 05:48:23;;;;;;;2.17;1.25;;;;;;;15.51;100.00;100224.09;5004240;28;20041;-91
2023/09/09 05:50:49;;;;;;;0.95;0.88;;;;;;;15.85;100.00;100231.41;5019788;28;20053;-91
2023/09/09 05:53:15;;;;;;;0.70;0.63;;;;;;;16.24;100.00;100246.38;4992538;28;20046;-92
2023/09/09 05:55:41;;;;;;;0.85;0.85;;;;;;;16.40;100.00;100220.81;5007253;28;20035;-92
2023/09/09 05:58:07;;;;;;;1.38;1.23;;;;;;;16.70;100.00;100230.97;4993527;28;20046;-92
2023/09/09 06:00:33;;;;;;;1.08;0.98;;;;;;;17.06;100.00;100232.03;4987442;28;20038;-92
2023/09/09 06:02:59;;;;;;;1.08;0.98;;;;;;;17.53;100.00;100251.63;5000638;28;20061;-92
2023/09/09 06:05:24;;;;;;;0.70;0.70;;;;;;;17.68;100.00;100238.44;5007056;28;20496;-92
2023/09/09 06:07:50;;;;;;;0.28;0.28;;;;;;;17.88;100.00;100237.00;5004103;28;20049;-93
2023/09/09 06:10:16;;;;;;;2.10;1.13;;;;;;;18.27;100.00;100257.38;4999704;28;20044;-91
2023/09/09 06:12:42;;;;;;;0.88;0.88;;;;;;;18.38;100.00;100244.28;5012337;28;20095;-92
2023/09/09 06:15:08;;;;;;;0.70;0.70;;;;;;;18.60;100.00;100239.03;4986530;28;20038;-92
2023/09/09 06:17:36;;;;;;;0.75;0.75;;;;;;;18.84;100.00;100238.13;4992782;28;20072;-93
2023/09/09 06:20:01;;;;;;;1.25;1.15;;;;;;;19.16;100.00;100253.91;5032222;23;20068;-90
2023/09/09 06:22:28;;;;;;;2.00;0.73;;;;;;;19.45;100.00;100265.03;5005287;28;20065;-90
2023/09/09 06:24:53;;;;;;;0.50;0.50;;;;;;;19.66;100.00;100267.84;5029707;28;20124;-91
2023/09/09 06:27:19;;;;;;;0.65;0.65;;;;;;;19.96;100.00;100267.16;4992498;28;20095;-90
2023/09/09 06:29:45;;;;;;;1.15;0.73;;;;;;;20.13;100.00;100258.88;5004921;28;20087;-91
2023/09/09 06:32:10;;;;;;;1.30;1.10;;;;;;;20.38;100.00;100263.75;5004648;28;20292;-91
2023/09/09 06:34:36;;;;;;;0.55;0.55;;;;;;;20.61;100.00;100275.97;5025044;28;20033;-91
2023/09/09 06:37:02;;;;;;;0.25;0.25;;;;;;;20.85;100.00;100273.59;4992717;28;20044;-92
2023/09/09 06:39:27;;;;;;;0.73;0.63;;;;;;;21.07;100.00;100289.88;5019414;28;20049;-92
2023/09/09 06:41:52;;;;;;;0.47;0.47;;;;;;;21.21;100.00;100272.03;5001211;28;20409;-92
2023/09/09 06:44:23;;;;;;;1.45;1.10;;;;;;;21.31;100.00;100250.03;5000190;28;20037;-92
2023/09/09 06:46:48;;;;;;;0.65;0.65;;;;;;;21.71;100.00;100280.75;4982536;28;20135;-92
2023/09/09 06:49:14;;;;;;;0.85;0.77;;;;;;;21.85;100.00;100293.88;4998883;28;20034;-91
2023/09/09 06:51:39;;;;;;;0.88;0.85;;;;;;;22.09;100.00;100275.72;5016862;28;20042;-93
2023/09/09 06:54:05;;;;;;;0.52;0.50;;;;;;;22.12;97.30;100286.00;5016968;28;20040;-95
2023/09/09 06:56:31;;;;;;;3.72;1.40;;;;;;;22.51;96.67;100288.88;4999096;28;20048;-93
2023/09/09 06:58:56;;;;;;;0.75;0.75;;;;;;;22.65;92.46;100282.16;4993362;28;20042;-89
2023/09/09 07:01:22;;;;;;;0.47;0.47;;;;;;;22.93;88.20;100302.75;5021225;28;20048;-92
2023/09/09 07:03:47;;;;;;;0.95;0.80;;;;;;;23.02;84.59;100291.16;5000753;28;20120;-92
2023/09/09 07:06:13;;;;;;;1.10;1.00;;;;;;;23.30;82.05;100301.66;4974911;28;20392;-92
2023/09/09 07:08:40;;;;;;;1.08;0.98;;;;;;;23.37;78.77;100293.41;5019446;28;20527;-94
2023/09/09 07:11:06;;;;;;;1.30;1.20;;;;;;;23.63;77.56;100295.91;5025942;28;20041;-93
2023/09/09 07:13:31;;;;;;;1.20;0.93;;;;;;;23.79;75.46;100300.72;5023885;28;20777;-93
2023/09/09 07:15:57;;;;;;;1.27;0.90;;;;;;;23.93;74.28;100301.69;5025817;28;20033;-93
2023/09/09 07:18:22;;;;;;;1.30;1.00;;;;;;;23.90;72.97;100309.16;5000880;28;20057;-94
2023/09/09 07:20:48;;;;;;;1.42;1.10;;;;;;;24.17;74.03;100304.66;5020970;28;20053;-93
2023/09/09 07:23:15;;;;;;;0.70;0.70;;;;;;;24.28;72.64;100303.81;5007832;28;20053;-94
2023/09/09 07:25:42;;;;;;;1.35;1.20;;;;;;;24.34;69.00;100298.88;5003301;28;20045;-93
2023/09/09 07:28:08;;;;;;;2.47;1.88;;;;;;;24.31;70.78;100302.75;5009247;28;20092;-94
2023/09/09 07:30:34;;;;;;;1.27;1.17;;;;;;;24.54;70.45;100304.16;5011047;28;20041;-93
2023/09/09 07:32:59;;;;;;;7.97;1.65;;;;;;;24.71;67.28;100301.94;5022169;28;20531;-94
2023/09/09 07:35:25;;;;;;;1.10;0.93;;;;;;;24.79;67.47;100317.06;5011656;28;20034;-94
2023/09/09 07:37:50;;;;;;;1.35;1.02;;;;;;;25.07;66.35;100300.59;5025253;28;20038;-95
2023/09/09 07:40:16;;;;;;;0.93;0.93;;;;;;;25.36;66.27;100313.19;5022562;28;20121;-94
2023/09/09 07:42:42;;;;;;;0.20;0.20;;;;;;;25.49;65.85;100306.84;5019138;28;20038;-94
2023/09/09 07:45:08;;;;;;;0.65;0.50;;;;;;;25.78;65.01;100314.53;5021898;28;20030;-93
2023/09/09 07:47:33;;;;;;;1.30;0.98;;;;;;;25.84;63.33;100312.38;5009676;28;20116;-93
2023/09/09 07:49:59;;;;;;;1.00;1.00;;;;;;;25.65;63.10;100303.06;5007062;28;20037;-93
2023/09/09 07:52:24;;;;;;;1.85;1.05;;;;;;;25.94;63.32;100301.41;4990897;28;20042;-93
2023/09/09 07:54:52;;;;;;;1.17;1.05;;;;;;;26.19;63.27;100308.56;5003346;28;20037;-95
2023/09/09 07:57:17;;;;;;;1.50;1.23;;;;;;;26.22;61.97;100309.56;5021349;28;20054;-92
2023/09/09 07:59:43;;;;;;;0.52;0.52;;;;;;;26.11;57.58;100315.38;4990308;28;20127;-91
2023/09/09 08:02:08;;;;;;;1.35;1.13;;;;;;;26.44;58.32;100312.84;5025100;28;20121;-91
2023/09/09 08:04:34;;;;;;;0.77;0.75;;;;;;;26.54;58.10;100310.34;4996046;28;20038;-93
2023/09/09 08:07:00;;;;;;;1.33;1.23;;;;;;;26.69;58.85;100296.38;4991214;28;20467;-93
2023/09/09 08:09:26;;;;;;;2.45;0.50;;;;;;;26.84;59.60;100319.47;4998976;28;20037;-93
2023/09/09 08:11:52;;;;;;;2.08;1.35;;;;;;;26.85;56.65;100320.97;4990329;28;20064;-93
2023/09/09 08:14:18;;;;;;;0.75;0.75;;;;;;;26.50;61.19;100324.13;4983834;28;20498;-92
2023/09/09 08:16:43;;;;;;;0.68;0.63;;;;;;;26.86;61.71;100325.34;4963771;28;20076;-94
2023/09/09 08:19:09;;;;;;;1.55;0.88;;;;;;;26.79;55.48;100334.50;5007138;28;20132;-93
2023/09/09 08:21:35;;;;;;;1.23;0.90;;;;;;;26.38;58.58;100325.59;4993951;28;20049;-92
2023/09/09 08:24:00;;;;;;;2.05;1.00;;;;;;;26.76;60.50;100324.22;5010016;28;20501;-93
2023/09/09 08:26:27;;;;;;;1.92;0.88;;;;;;;26.82;59.92;100304.97;4994015;28;20128;-93
2023/09/09 08:28:54;;;;;;;5.78;1.55;;;;;;;27.21;55.72;100323.47;5003037;28;20062;-93
2023/09/09 08:31:20;;;;;;;2.63;1.27;;;;;;;27.27;52.67;100318.41;5010929;28;20054;-92
2023/09/09 08:33:46;;;;;;;0.85;0.85;;;;;;;27.50;52.96;100330.94;5013611;28;20033;-93
2023/09/09 08:36:11;;;;;;;1.35;1.08;;;;;;;27.27;50.05;100329.81;4980925;28;20075;-92
2023/09/09 08:38:37;;;;;;;0.77;0.77;;;;;;;27.46;50.04;100321.19;4997140;28;20080;-93
2023/09/09 08:41:10;;;;;;;0.70;0.70;;;;;;;27.91;50.38;100321.78;4992441;28;20401;-92
2023/09/09 08:43:45;;;;;;;3.35;1.90;;;;;;;28.14;47.65;100327.81;5008682;28;20466;-93
2023/09/09 08:46:19;;;;;;;1.20;1.15;;;;;;;28.41;46.46;100326.41;4986531;28;20128;-93
2023/09/09 08:48:45;;;;;;;0.80;0.80;;;;;;;27.68;49.44;100315.81;5005996;28;20540;-93
2023/09/09 08:51:16;;;;;;;1.27;1.13;;;;;;;27.83;50.78;100310.31;5004690;28;20045;-93
2023/09/09 08:53:43;;;;;;;1.90;1.63;;;;;;;28.36;49.99;100320.81;5013508;28;20049;-94
2023/09/09 08:56:12;;;;;;;0.73;0.70;;;;;;;28.70;46.79;100321.59;4992668;28;20041;-94
2023/09/09 08:58:37;;;;;;;0.82;0.80;;;;;;;28.80;46.54;100313.28;4997889;28;20118;-93
2023/09/09 09:01:03;;;;;;;1.65;0.93;;;;;;;29.17;45.84;100315.69;4995939;28;20497;-93
2023/09/09 09:03:30;;;;;;;1.45;0.93;;;;;;;29.28;45.54;100317.50;4987822;28;20132;-93
2023/09/09 09:05:56;;;;;;;0.93;0.85;;;;;;;29.11;45.37;100318.72;5011476;28;20034;-94
2023/09/09 09:08:22;;;;;;;0.90;0.90;;;;;;;29.33;45.06;100314.50;5008630;28;20037;-93
2023/09/09 09:10:47;;;;;;;2.83;2.22;;;;;;;29.44;45.49;100314.16;4973890;28;20481;-92
2023/09/09 09:13:14;;;;;;;1.25;0.85;;;;;;;29.77;44.83;100321.03;4997129;28;20048;-94
2023/09/09 09:15:41;;;;;;;1.73;1.20;;;;;;;29.75;42.54;100305.78;4986565;28;20400;-93
2023/09/09 09:18:08;;;;;;;0.80;0.80;;;;;;;29.60;42.91;100298.63;5013365;28;20449;-93
2023/09/09 09:20:33;;;;;;;0.73;0.73;;;;;;;29.82;41.02;100290.72;4992379;28;20081;-93
2023/09/09 09:23:05;;;;;;;1.05;0.90;;;;;;;29.99;39.38;100302.47;5006124;28;20041;-92
2023/09/09 09:25:37;;;;;;;2.65;1.48;;;;;;;29.91;39.52;100319.59;4979935;28;20037;-93
2023/09/09 09:28:03;;;;;;;0.60;0.60;;;;;;;29.91;40.03;100290.22;4997107;28;20038;-93
2023/09/09 09:30:30;;;;;;;4.82;1.25;;;;;;;30.08;40.38;100290.50;4976725;28;20037;-94
2023/09/09 09:32:56;;;;;;;0.68;0.68;;;;;;;30.79;38.52;100305.88;5009840;28;20045;-93
2023/09/09 09:35:32;;;;;;;1.38;0.98;;;;;;;30.75;36.73;100305.50;4999141;28;20505;-93
2023/09/09 09:37:58;;;;;;;0.70;0.70;;;;;;;30.90;37.69;100312.00;5009672;28;20141;-94
2023/09/09 09:40:24;;;;;;;1.20;0.98;;;;;;;31.12;36.75;100316.22;5006466;28;20041;-93
2023/09/09 09:42:52;;;;;;;0.65;0.65;;;;;;;30.62;37.78;100314.25;4989772;28;20061;-94
2023/09/09 09:45:22;;;;;;;1.58;1.48;;;;;;;30.62;39.02;100302.81;5009394;28;20109;-93
2023/09/09 09:47:48;;;;;;;0.85;0.85;;;;;;;30.83;37.76;100297.69;4985967;28;20386;-94
2023/09/09 09:50:28;;;;;;;1.10;1.10;;;;;;;31.15;37.07;100320.03;5003590;28;20042;-92
2023/09/09 09:53:05;;;;;;;0.98;0.93;;;;;;;31.18;37.43;100302.44;5006607;28;20521;-94
2023/09/09 09:55:35;;;;;;;0.75;0.75;;;;;;;31.48;37.11;100313.88;4979652;28;20402;-93
2023/09/09 09:58:03;;;;;;;0.77;0.70;;;;;;;31.53;36.67;100309.28;4996397;28;20485;-94
2023/09/09 10:00:29;;;;;;;0.60;0.60;;;;;;;31.34;36.16;100311.81;4996538;28;20497;-93
2023/09/09 10:02:57;;;;;;;1.65;1.08;;;;;;;30.99;37.30;100302.09;5029447;28;20052;-93
2023/09/09 10:05:24;;;;;;;3.15;1.92;;;;;;;31.10;37.00;100303.81;5010616;28;20044;-94
2023/09/09 10:08:23;;;;;;;0.90;0.82;;;;;;;30.94;36.44;100292.31;4997163;28;20040;-94
2023/09/09 10:10:57;;;;;;;0.77;0.70;;;;;;;31.22;35.32;100304.97;5002318;28;20490;-94
2023/09/09 10:13:40;;;;;;;0.80;0.80;;;;;;;31.46;34.32;100287.88;5006513;28;20624;-92
2023/09/09 10:16:06;;;;;;;1.80;1.33;;;;;;;31.64;34.20;100302.38;4995419;28;20049;-93
2023/09/09 10:18:32;;;;;;;0.80;0.80;;;;;;;31.63;34.48;100306.59;4993764;28;20497;-93
2023/09/09 10:20:59;;;;;;;1.20;1.10;;;;;;;31.56;32.24;100295.91;5001222;28;20040;-93
2023/09/09 10:23:25;;;;;;;1.23;1.17;;;;;;;31.18;33.17;100291.00;5003298;28;20045;-93
2023/09/09 10:25:52;;;;;;;1.05;0.98;;;;;;;31.09;32.95;100287.97;4975217;28;21010;-93
2023/09/09 10:28:21;;;;;;;0.50;0.50;;;;;;;31.05;33.25;100287.59;5004194;28;20035;-94
2023/09/09 10:30:50;;;;;;;0.75;0.68;;;;;;;31.13;31.42;100291.97;5008690;28;20151;-94
2023/09/09 10:33:17;;;;;;;1.00;0.80;;;;;;;30.81;31.77;100291.78;4988797;28;20149;-93
2023/09/09 10:35:45;;;;;;;0.73;0.73;;;;;;;30.76;33.40;100278.41;4985777;28;20041;-93
2023/09/09 10:38:14;;;;;;;1.23;1.00;;;;;;;30.95;32.12;100279.53;5000481;28;20046;-93
2023/09/09 10:40:40;;;;;;;1.15;0.77;;;;;;;31.19;33.35;100278.19;5002654;28;20034;-94
2023/09/09 10:43:06;;;;;;;0.47;0.47;;;;;;;31.11;30.68;100279.53;4987675;28;20042;-93
2023/09/09 10:45:34;;;;;;;0.60;0.60;;;;;;;31.13;30.43;100277.66;4991891;28;20046;-92
2023/09/09 10:48:04;;;;;;;0.80;0.80;;;;;;;31.12;30.01;100284.72;5003579;28;20091;-90
2023/09/09 10:50:41;;;;;;;0.82;0.82;;;;;;;31.30;31.21;100280.66;5000120;28;20096;-92
2023/09/09 10:53:15;;;;;;;6.30;1.42;;;;;;;31.63;29.36;100272.94;5005860;28;20104;-91
2023/09/09 10:55:41;;;;;;;2.78;1.15;;;;;;;31.57;29.99;100274.50;5003585;28;20049;-89
2023/09/09 10:58:07;;;;;;;1.35;1.10;;;;;;;31.55;28.64;100277.16;5005315;28;20041;-90
2023/09/09 11:00:38;;;;;;;0.55;0.52;;;;;;;31.57;29.81;100263.81;4986136;28;20049;-94
2023/09/09 11:03:09;;;;;;;1.48;1.17;;;;;;;31.31;30.07;100270.72;4998122;28;20133;-93
2023/09/09 11:05:57;;;;;;;1.70;1.23;;;;;;;31.44;30.19;100267.63;5000133;28;20117;-93
2023/09/09 11:08:30;;;;;;;1.17;0.88;;;;;;;32.04;30.50;100265.88;4991645;28;20552;-93
2023/09/09 11:11:15;;;;;;;1.50;1.15;;;;;;;32.28;29.54;100256.56;4998839;28;20418;-93
2023/09/09 11:13:40;;;;;;;1.92;1.05;;;;;;;32.64;29.40;100252.50;5011617;28;20045;-94
2023/09/09 11:16:06;;;;;;;0.45;0.45;;;;;;;32.37;28.15;100253.06;5001972;28;20046;-92
2023/09/09 11:18:34;;;;;;;2.30;1.13;;;;;;;32.46;27.20;100259.50;5003801;28;20046;-93
2023/09/09 11:21:00;;;;;;;0.70;0.63;;;;;;;32.49;27.16;100264.84;4988405;28;20128;-93
2023/09/09 11:23:26;;;;;;;1.00;0.90;;;;;;;32.49;27.29;100258.34;5007340;28;20065;-95
2023/09/09 11:25:53;;;;;;;0.30;0.30;;;;;;;32.70;27.93;100250.16;5010231;28;20041;-94
2023/09/09 11:28:19;;;;;;;0.82;0.70;;;;;;;32.62;26.10;100270.34;4995866;28;20145;-94
2023/09/09 11:30:44;;;;;;;0.88;0.85;;;;;;;31.85;27.44;100259.84;4986007;28;20117;-94
2023/09/09 11:33:20;;;;;;;0.50;0.50;;;;;;;31.35;28.46;100265.34;5007877;28;20073;-94
2023/09/09 11:35:45;;;;;;;1.15;0.95;;;;;;;31.39;28.57;100267.84;5006650;28;20045;-95
2023/09/09 11:38:13;;;;;;;1.05;0.90;;;;;;;31.57;28.57;100251.56;5002865;28;20045;-93
2023/09/09 11:40:40;;;;;;;1.27;1.10;;;;;;;32.08;28.66;100243.31;4974386;28;20046;-93
2023/09/09 11:43:06;;;;;;;0.60;0.60;;;;;;;32.39;28.07;100244.63;5007455;28;20074;-94
2023/09/09 11:45:34;;;;;;;0.98;0.57;;;;;;;32.42;27.37;100244.81;4998918;28;20502;-94
2023/09/09 11:48:00;;;;;;;0.57;0.57;;;;;;;32.86;27.47;100242.16;5001723;28;20031;-94
2023/09/09 11:50:39;;;;;;;1.17;1.10;;;;;;;32.60;27.55;100255.00;4998084;28;20053;-93
2023/09/09 11:53:05;;;;;;;1.80;1.48;;;;;;;32.48;27.06;100251.84;4990146;28;20490;-93
2023/09/09 11:55:30;;;;;;;1.65;1.25;;;;;;;32.39;27.43;100252.50;5000098;28;20045;-94
2023/09/09 11:57:56;;;;;;;1.13;0.90;;;;;;;32.35;27.44;100250.00;4995760;28;20049;-94
2023/09/09 12:00:22;;;;;;;0.50;0.50;;;;;;;32.52;27.00;100248.53;4991302;28;20433;-94
2023/09/09 12:02:48;;;;;;;0.88;0.85;;;;;;;32.19;27.82;100237.09;5007612;28;20447;-94
2023/09/09 12:05:14;;;;;;;1.50;1.30;;;;;;;31.76;27.40;100246.88;5004077;28;20117;-95